createdAt,value
2023-03-14T00:01:58.671Z,27.76
2023-03-14T00:05:58.812Z,27.72
2023-03-14T00:09:58.917Z,27.77
2023-03-14T00:13:59.179Z,27.77
2023-03-14T00:17:59.346Z,27.77
2023-03-14T00:21:59.518Z,27.76
2023-03-14T00:25:59.687Z,27.76
2023-03-14T00:29:59.880Z,27.76
2023-03-14T00:34:00.024Z,27.80
2023-03-14T00:38:00.149Z,27.82
2023-03-14T00:42:00.295Z,27.81
2023-03-14T00:46:00.764Z,27.82
2023-03-14T00:50:00.635Z,27.82
2023-03-14T00:54:00.805Z,27.84
2023-03-14T00:58:01.048Z,27.85
2023-03-14T01:02:01.289Z,27.84
2023-03-14T01:06:01.394Z,27.87
2023-03-14T01:10:01.593Z,27.86
2023-03-14T01:14:01.667Z,27.91
2023-03-14T01:18:01.970Z,27.87
2023-03-14T01:22:02.058Z,27.88
2023-03-14T01:26:02.109Z,27.91
2023-03-14T01:30:02.239Z,27.92
2023-03-14T01:34:02.419Z,27.93
2023-03-14T01:38:02.606Z,27.93
2023-03-14T01:42:02.686Z,27.95
2023-03-14T01:46:02.790Z,27.94
2023-03-14T01:50:02.887Z,27.94
2023-03-14T01:54:03.016Z,27.95
2023-03-14T01:58:03.167Z,27.96
2023-03-14T02:02:03.261Z,27.97
2023-03-14T02:06:03.321Z,27.97
2023-03-14T02:10:03.533Z,27.97
2023-03-14T02:14:03.566Z,27.98
2023-03-14T02:18:03.692Z,27.99
2023-03-14T02:22:03.829Z,27.98
2023-03-14T02:26:03.956Z,28.00
2023-03-14T02:30:04.016Z,28.00
2023-03-14T02:34:04.161Z,28.00
2023-03-14T02:38:04.179Z,28.00
2023-03-14T02:42:04.304Z,28.01
2023-03-14T02:46:04.496Z,28.01
2023-03-14T02:50:04.432Z,28.03
2023-03-14T02:54:04.576Z,28.03
2023-03-14T02:58:04.621Z,28.03
2023-03-14T03:02:04.683Z,28.05
2023-03-14T03:06:04.816Z,28.04
2023-03-14T03:10:04.902Z,28.04
2023-03-14T03:14:04.975Z,28.04
2023-03-14T03:18:05.085Z,28.06
2023-03-14T03:22:05.133Z,28.06
2023-03-14T03:26:05.159Z,28.06
2023-03-14T03:30:05.346Z,28.07
2023-03-14T03:34:05.318Z,28.07
2023-03-14T03:38:05.457Z,28.08
2023-03-14T03:42:05.545Z,28.10
2023-03-14T03:46:05.643Z,28.10
2023-03-14T03:50:05.687Z,28.09
2023-03-14T03:54:05.726Z,28.10
2023-03-14T03:58:05.797Z,28.13
2023-03-14T04:02:05.944Z,28.11
2023-03-14T04:06:06.006Z,28.12
2023-03-14T04:10:06.035Z,28.12
2023-03-14T04:14:06.108Z,28.11
2023-03-14T04:18:06.129Z,28.13
2023-03-14T04:22:06.256Z,28.14
2023-03-14T04:26:06.314Z,28.13
2023-03-14T04:30:06.364Z,28.13
2023-03-14T04:34:06.448Z,28.16
2023-03-14T04:38:06.524Z,28.15
2023-03-14T04:42:06.614Z,28.14
2023-03-14T04:46:06.677Z,28.16
2023-03-14T04:50:06.822Z,28.16
2023-03-14T04:54:06.828Z,28.16
2023-03-14T04:58:06.909Z,28.16
2023-03-14T05:02:06.971Z,28.18
2023-03-14T05:06:07.093Z,28.17
2023-03-14T05:10:07.175Z,28.27
2023-03-14T05:14:07.266Z,28.34
2023-03-14T05:18:07.353Z,28.43
2023-03-14T05:22:07.431Z,28.52
2023-03-14T05:26:07.521Z,28.57
2023-03-14T05:30:07.636Z,28.59
2023-03-14T05:34:07.719Z,28.68
2023-03-14T05:38:07.852Z,28.63
2023-03-14T05:42:07.998Z,28.68
2023-03-14T05:46:08.137Z,28.63
2023-03-14T05:50:08.132Z,28.61
2023-03-14T05:54:08.911Z,28.60
2023-03-14T05:58:08.306Z,28.57
2023-03-14T06:02:08.404Z,28.86
2023-03-14T06:06:08.445Z,30.07
2023-03-14T06:10:08.640Z,30.04
2023-03-14T06:14:08.609Z,30.09
2023-03-14T06:18:08.713Z,30.08
2023-03-14T06:22:08.879Z,30.08
2023-03-14T06:26:09.124Z,30.17
2023-03-14T06:30:09.130Z,31.07
2023-03-14T06:34:09.488Z,31.14
2023-03-14T06:38:09.404Z,31.96
2023-03-14T06:42:09.390Z,31.37
2023-03-14T06:46:09.941Z,31.67
2023-03-14T06:50:09.970Z,31.68
2023-03-14T06:54:09.686Z,31.75
2023-03-14T06:58:09.804Z,31.63
2023-03-14T07:02:10.072Z,31.75
2023-03-14T07:06:10.104Z,31.71
2023-03-14T07:10:10.335Z,31.79
2023-03-14T07:14:10.574Z,31.77
2023-03-14T07:18:10.666Z,31.68
2023-03-14T07:22:10.727Z,31.54
2023-03-14T07:26:10.909Z,31.73
2023-03-14T07:30:10.980Z,32.10
2023-03-14T07:34:11.196Z,31.80
2023-03-14T07:38:11.313Z,31.93
2023-03-14T07:42:11.895Z,32.09
2023-03-14T07:46:11.612Z,32.01
2023-03-14T07:50:11.672Z,31.86
2023-03-14T07:54:11.973Z,31.74
2023-03-14T07:58:11.922Z,31.62
2023-03-14T08:02:12.067Z,31.47
2023-03-14T08:06:12.471Z,31.45
2023-03-14T08:10:12.477Z,31.48
2023-03-14T08:14:12.972Z,31.45
2023-03-14T08:18:12.646Z,31.33
2023-03-14T08:22:12.761Z,31.31
2023-03-14T08:26:13.561Z,31.34
2023-03-14T08:30:13.095Z,31.31
2023-03-14T08:34:13.909Z,31.58
2023-03-14T08:38:13.953Z,31.57
2023-03-14T08:42:13.678Z,31.73
2023-03-14T08:46:13.772Z,31.58
2023-03-14T08:50:16.393Z,31.66
2023-03-14T08:54:13.876Z,31.55
2023-03-14T08:58:13.914Z,31.52
2023-03-14T09:02:13.986Z,31.61
2023-03-14T09:06:14.028Z,31.50
2023-03-14T09:10:13.756Z,31.44
2023-03-14T09:14:22.925Z,31.41
2023-03-14T09:18:14.131Z,31.37
2023-03-14T09:22:13.638Z,31.35
2023-03-14T09:26:13.966Z,31.40
2023-03-14T09:30:13.604Z,31.20
2023-03-14T09:34:13.524Z,31.32
2023-03-14T09:38:13.453Z,31.38
2023-03-14T09:42:13.472Z,31.31
2023-03-14T09:46:13.472Z,31.61
2023-03-14T09:50:13.548Z,31.63
2023-03-14T09:54:13.371Z,31.81
2023-03-14T09:58:13.503Z,31.63
2023-03-14T10:02:13.204Z,31.59
2023-03-14T10:06:13.132Z,31.53
2023-03-14T10:10:13.198Z,31.54
2023-03-14T10:14:13.267Z,31.61
2023-03-14T10:18:13.348Z,31.64
2023-03-14T10:22:13.419Z,31.76
2023-03-14T10:26:13.909Z,31.74
2023-03-14T10:30:13.987Z,31.78
2023-03-14T10:34:14.055Z,31.98
2023-03-14T10:38:13.777Z,32.12
2023-03-14T10:42:13.846Z,32.06
2023-03-14T10:46:13.928Z,32.07
2023-03-14T10:50:14.019Z,32.08
2023-03-14T10:54:14.082Z,32.09
2023-03-14T10:58:14.118Z,32.08
2023-03-14T11:02:14.254Z,32.10
2023-03-14T11:06:14.488Z,31.96
2023-03-14T11:10:14.464Z,31.77
2023-03-14T11:14:14.539Z,31.72
2023-03-14T11:18:14.626Z,31.76
2023-03-14T11:22:14.787Z,31.65
2023-03-14T11:26:16.473Z,31.60
2023-03-14T11:30:15.097Z,31.54
2023-03-14T11:34:15.006Z,31.69
2023-03-14T11:38:15.029Z,31.69
2023-03-14T11:42:15.135Z,31.66
2023-03-14T11:46:15.245Z,31.60
2023-03-14T11:50:15.296Z,31.55
2023-03-14T11:54:15.497Z,31.48
2023-03-14T11:58:15.569Z,31.36
2023-03-14T12:02:15.781Z,31.35
2023-03-14T12:06:15.841Z,31.29
2023-03-14T12:10:15.926Z,31.19
2023-03-14T12:14:16.327Z,31.21
2023-03-14T12:18:16.271Z,31.27
2023-03-14T12:22:16.232Z,31.31
2023-03-14T12:26:16.330Z,31.30
2023-03-14T12:30:16.445Z,31.11
2023-03-14T12:34:16.448Z,31.20
2023-03-14T12:38:16.545Z,31.16
2023-03-14T12:42:16.648Z,31.11
2023-03-14T12:46:16.919Z,31.08
2023-03-14T12:50:16.882Z,31.04
2023-03-14T12:54:16.919Z,30.94
2023-03-14T12:58:17.032Z,31.01
2023-03-14T13:02:17.108Z,30.97
2023-03-14T13:06:17.103Z,30.93
2023-03-14T13:10:17.178Z,30.85
2023-03-14T13:14:17.277Z,30.83
2023-03-14T13:18:17.388Z,30.78
2023-03-14T13:22:17.558Z,30.65
2023-03-14T13:26:17.635Z,30.60
2023-03-14T13:30:17.751Z,30.56
2023-03-14T13:34:17.909Z,30.54
2023-03-14T13:38:18.017Z,30.47
2023-03-14T13:42:18.133Z,30.42
2023-03-14T13:46:18.290Z,30.45
2023-03-14T13:50:18.369Z,30.48
2023-03-14T13:54:18.473Z,30.50
2023-03-14T13:58:18.546Z,30.56
2023-03-14T14:02:19.421Z,30.54
2023-03-14T14:06:18.676Z,30.55
2023-03-14T14:10:18.862Z,30.56
2023-03-14T14:14:18.968Z,30.58
2023-03-14T14:18:19.055Z,30.57
2023-03-14T14:22:19.170Z,30.56
2023-03-14T14:26:19.317Z,30.56
2023-03-14T14:30:19.388Z,30.54
2023-03-14T14:34:19.405Z,30.34
2023-03-14T14:38:19.536Z,30.63
2023-03-14T14:42:20.044Z,30.65
2023-03-14T14:46:19.801Z,30.70
2023-03-14T14:50:20.032Z,30.65
2023-03-14T14:54:19.938Z,30.66
2023-03-14T14:58:22.433Z,30.68
2023-03-14T15:02:20.027Z,30.78
2023-03-14T15:06:19.968Z,30.73
2023-03-14T15:10:19.988Z,30.82
2023-03-14T15:14:20.101Z,30.81
2023-03-14T15:18:19.891Z,30.86
2023-03-14T15:22:19.878Z,30.86
2023-03-14T15:26:19.805Z,30.88
2023-03-14T15:30:19.780Z,30.97
2023-03-14T15:34:19.689Z,31.03
2023-03-14T15:38:19.702Z,31.08
2023-03-14T15:42:19.667Z,31.04
2023-03-14T15:46:19.673Z,30.93
2023-03-14T15:50:19.560Z,30.83
2023-03-14T15:54:19.545Z,30.96
2023-03-14T15:58:21.561Z,31.12
2023-03-14T16:02:19.534Z,31.14
2023-03-14T16:06:19.613Z,30.94
2023-03-14T16:10:19.768Z,30.94
2023-03-14T16:14:19.869Z,31.10
2023-03-14T16:18:22.163Z,31.14
2023-03-14T16:22:20.179Z,31.02
2023-03-14T16:26:20.312Z,31.04
2023-03-14T16:30:20.503Z,31.01
2023-03-14T16:34:20.657Z,30.94
2023-03-14T16:38:20.801Z,30.75
2023-03-14T16:42:20.917Z,30.81
2023-03-14T16:46:21.180Z,30.80
2023-03-14T16:50:21.201Z,30.91
2023-03-14T16:54:21.376Z,31.05
2023-03-14T16:58:21.517Z,31.09
2023-03-14T17:02:22.166Z,31.01
2023-03-14T17:06:21.823Z,31.08
2023-03-14T17:10:21.943Z,31.06
2023-03-14T17:14:22.090Z,31.09
2023-03-14T17:18:22.264Z,31.12
2023-03-14T17:22:25.180Z,31.08
2023-03-14T17:26:23.322Z,31.04
2023-03-14T17:30:22.330Z,31.02
2023-03-14T17:34:22.375Z,31.00
2023-03-14T17:38:22.576Z,30.96
2023-03-14T17:42:23.141Z,30.90
2023-03-14T17:46:22.818Z,30.88
2023-03-14T17:50:22.938Z,30.78
2023-03-14T17:54:23.155Z,30.77
2023-03-14T17:58:23.269Z,30.49
2023-03-14T18:02:23.645Z,30.44
2023-03-14T18:06:23.635Z,30.50
2023-03-14T18:10:23.746Z,30.52
2023-03-14T18:14:23.972Z,30.52
2023-03-14T18:18:24.145Z,30.50
2023-03-14T18:22:24.267Z,30.47
2023-03-14T18:26:24.417Z,30.45
2023-03-14T18:30:24.606Z,30.45
2023-03-14T18:34:24.756Z,30.38
2023-03-14T18:38:24.865Z,30.59
2023-03-14T18:42:25.040Z,30.58
2023-03-14T18:46:25.669Z,30.66
2023-03-14T18:50:25.324Z,30.67
2023-03-14T18:54:25.599Z,30.67
2023-03-14T18:58:25.610Z,30.66
2023-03-14T19:02:25.850Z,30.64
2023-03-14T19:06:25.985Z,30.61
2023-03-14T19:10:26.100Z,30.59
2023-03-14T19:14:26.336Z,30.60
2023-03-14T19:18:26.506Z,30.67
2023-03-14T19:22:26.622Z,30.69
2023-03-14T19:26:26.827Z,30.70
2023-03-14T19:30:26.985Z,30.70
2023-03-14T19:34:27.173Z,30.75
2023-03-14T19:38:27.446Z,30.73
2023-03-14T19:42:27.517Z,30.74
2023-03-14T19:46:27.770Z,30.73
2023-03-14T19:50:27.863Z,30.76
2023-03-14T19:54:27.999Z,30.73
2023-03-14T19:58:28.170Z,30.74
2023-03-14T20:02:29.569Z,30.75
2023-03-14T20:06:28.512Z,30.77
2023-03-14T20:10:28.670Z,30.71
2023-03-14T20:14:28.833Z,30.72
2023-03-14T20:18:28.991Z,30.71
2023-03-14T20:22:29.201Z,30.75
2023-03-14T20:26:29.352Z,30.70
2023-03-14T20:30:29.634Z,30.67
2023-03-14T20:34:30.224Z,30.61
2023-03-14T20:38:29.842Z,30.53
2023-03-14T20:42:29.988Z,30.46
2023-03-14T20:46:30.101Z,30.39
2023-03-14T20:50:30.690Z,30.31
2023-03-14T20:54:30.326Z,30.32
2023-03-14T20:58:30.379Z,30.31
2023-03-14T21:02:30.555Z,30.31
2023-03-14T21:06:30.811Z,30.31
2023-03-14T21:10:30.753Z,30.31
2023-03-14T21:14:31.233Z,30.31
2023-03-14T21:18:31.044Z,30.29
2023-03-14T21:22:31.204Z,30.26
2023-03-14T21:26:31.337Z,30.23
2023-03-14T21:30:31.399Z,30.24
2023-03-14T21:34:31.581Z,30.22
2023-03-14T21:38:31.794Z,30.23
2023-03-14T21:42:31.902Z,30.23
2023-03-14T21:46:32.084Z,30.21
2023-03-14T21:50:32.179Z,30.24
2023-03-14T21:54:32.316Z,30.26
2023-03-14T21:58:32.467Z,30.28
2023-03-14T22:02:32.708Z,30.28
2023-03-14T22:06:32.776Z,30.28
2023-03-14T22:10:32.858Z,30.29
2023-03-14T22:14:33.025Z,30.26
2023-03-14T22:18:33.169Z,30.27
2023-03-14T22:22:33.331Z,30.28
2023-03-14T22:26:33.482Z,30.27
2023-03-14T22:30:33.671Z,30.25
2023-03-14T22:34:33.835Z,30.25
2023-03-14T22:38:34.036Z,30.25
2023-03-14T22:42:34.209Z,30.27
2023-03-14T22:46:34.366Z,30.27
2023-03-14T22:50:34.451Z,30.28
2023-03-14T22:54:34.638Z,30.27
2023-03-14T22:58:34.758Z,30.29
2023-03-14T23:02:34.994Z,30.26
2023-03-14T23:06:35.041Z,30.28
2023-03-14T23:10:35.267Z,30.29
2023-03-14T23:14:35.386Z,30.29
2023-03-14T23:18:35.574Z,30.29
2023-03-14T23:22:35.710Z,30.28
2023-03-14T23:26:36.035Z,30.31
2023-03-14T23:30:35.941Z,30.29
2023-03-14T23:34:35.996Z,30.31
2023-03-14T23:38:36.037Z,30.28
2023-03-14T23:42:36.212Z,30.30
2023-03-14T23:46:36.329Z,30.30
2023-03-14T23:50:36.320Z,30.29
2023-03-14T23:54:36.497Z,30.29
2023-03-14T23:58:36.498Z,30.31
